createdAt,value
2019-02-07T00:02:04.447Z,9.93
2019-02-07T00:04:33.635Z,10.27
2019-02-07T00:07:02.842Z,11.00
2019-02-07T00:09:34.107Z,11.10
2019-02-07T00:12:03.588Z,11.27
2019-02-07T00:14:39.510Z,10.37
2019-02-07T00:17:04.118Z,11.53
2019-02-07T00:19:33.282Z,10.53
2019-02-07T00:22:03.030Z,10.97
2019-02-07T00:24:42.493Z,11.23
2019-02-07T00:27:04.880Z,10.73
2019-02-07T00:29:34.542Z,10.90
2019-02-07T00:32:04.269Z,11.70
2019-02-07T00:34:33.665Z,11.27
2019-02-07T00:37:03.416Z,10.97
2019-02-07T00:39:32.996Z,11.23
2019-02-07T00:42:02.866Z,11.70
2019-02-07T00:44:32.381Z,11.40
2019-02-07T00:47:01.848Z,11.37
2019-02-07T00:49:31.617Z,11.13
2019-02-07T00:52:01.057Z,10.73
2019-02-07T00:54:30.800Z,11.80
2019-02-07T00:57:00.915Z,10.70
2019-02-07T00:59:30.135Z,11.73
2019-02-07T01:01:59.320Z,10.43
2019-02-07T01:04:28.786Z,11.27
2019-02-07T01:06:58.512Z,12.03
2019-02-07T01:09:28.350Z,11.20
2019-02-07T01:11:58.273Z,12.53
2019-02-07T01:14:27.469Z,12.10
2019-02-07T01:16:56.657Z,12.50
2019-02-07T01:19:26.105Z,12.30
2019-02-07T01:21:55.280Z,11.30
2019-02-07T01:24:24.742Z,11.47
2019-02-07T01:26:54.505Z,11.67
2019-02-07T01:29:24.038Z,12.03
2019-02-07T01:31:53.824Z,11.33
2019-02-07T01:34:23.629Z,11.60
2019-02-07T01:36:53.053Z,11.30
2019-02-07T01:39:22.661Z,12.07
2019-02-07T01:41:52.123Z,11.30
2019-02-07T01:44:21.319Z,10.73
2019-02-07T01:46:50.486Z,11.23
2019-02-07T01:49:19.689Z,10.80
2019-02-07T01:51:49.142Z,11.53
2019-02-07T01:54:18.432Z,10.37
2019-02-07T01:56:47.606Z,11.47
2019-02-07T01:59:16.806Z,11.67
2019-02-07T02:01:46.375Z,11.10
2019-02-07T02:04:15.568Z,10.77
2019-02-07T02:06:44.752Z,10.57
2019-02-07T02:09:14.044Z,10.83
2019-02-07T02:11:43.484Z,10.80
2019-02-07T02:14:13.057Z,10.77
2019-02-07T02:16:42.220Z,10.93
2019-02-07T02:19:11.433Z,11.50
2019-02-07T02:21:40.631Z,10.83
2019-02-07T02:24:10.189Z,10.43
2019-02-07T02:26:39.353Z,9.80
2019-02-07T02:29:08.658Z,10.90
2019-02-07T02:31:38.175Z,11.00
2019-02-07T02:34:07.754Z,10.40
2019-02-07T02:36:37.288Z,10.60
2019-02-07T02:39:47.864Z,10.17
2019-02-07T02:42:17.725Z,10.40
2019-02-07T02:44:47.286Z,11.17
2019-02-07T02:47:16.470Z,10.10
2019-02-07T02:49:45.663Z,10.10
2019-02-07T02:52:14.876Z,10.50
2019-02-07T02:55:03.259Z,9.93
2019-02-07T02:57:32.699Z,9.80
2019-02-07T03:00:01.994Z,10.63
2019-02-07T03:02:50.080Z,9.67
2019-02-07T03:05:38.497Z,9.33
2019-02-07T03:08:26.864Z,9.93
2019-02-07T03:11:15.551Z,8.93
2019-02-07T03:14:03.640Z,9.63
2019-02-07T03:16:51.766Z,10.03
2019-02-07T03:19:30.175Z,9.57
2019-02-07T03:22:18.571Z,8.80
2019-02-07T03:25:06.773Z,10.40
2019-02-07T03:27:54.883Z,10.07
2019-02-07T03:30:43.012Z,9.90
2019-02-07T03:33:31.711Z,10.33
2019-02-07T03:36:20.102Z,9.90
2019-02-07T03:39:08.470Z,9.20
2019-02-07T03:41:56.643Z,9.80
2019-02-07T03:44:45.281Z,9.70
2019-02-07T03:47:33.702Z,9.03
2019-02-07T03:50:22.327Z,9.80
2019-02-07T03:53:10.776Z,9.43
2019-02-07T03:55:58.891Z,9.33
2019-02-07T03:58:47.023Z,9.00
2019-02-07T04:01:35.407Z,9.53
2019-02-07T04:07:25.396Z,9.00
2019-02-07T04:10:13.494Z,8.90
2019-02-07T04:13:01.619Z,9.20
2019-02-07T04:15:49.733Z,9.10
2019-02-07T04:18:30.486Z,9.37
2019-02-07T04:21:18.770Z,8.53
2019-02-07T04:23:57.423Z,8.73
2019-02-07T04:32:27.185Z,9.83
2019-02-07T05:33:47.143Z,12.23
2019-02-07T06:09:09.385Z,12.07
2019-02-07T06:11:57.753Z,12.27
2019-02-07T06:14:46.170Z,11.80
2019-02-07T06:17:34.537Z,11.73
2019-02-07T06:20:24.425Z,10.20
2019-02-07T06:23:12.842Z,9.97
2019-02-07T06:26:00.979Z,10.00
2019-02-07T06:28:49.289Z,10.43
2019-02-07T06:31:38.697Z,10.03
2019-02-07T06:34:29.032Z,10.43
2019-02-07T06:37:16.949Z,9.90
2019-02-07T06:40:05.646Z,10.23
2019-02-07T06:42:54.069Z,10.77
2019-02-07T06:45:42.476Z,11.10
2019-02-07T08:22:08.666Z,6.00
2019-02-07T08:24:45.104Z,4.70
2019-02-07T08:27:33.957Z,6.30
2019-02-07T08:47:58.665Z,5.13
2019-02-07T09:44:33.416Z,5.03
2019-02-07T09:47:13.680Z,3.50
2019-02-07T10:34:31.253Z,2.40
2019-02-07T10:40:36.449Z,2.50
2019-02-07T10:46:23.460Z,2.70
2019-02-07T10:49:03.531Z,2.87
2019-02-07T10:51:52.182Z,3.80
2019-02-07T11:03:37.049Z,2.87
2019-02-07T11:06:25.496Z,3.43
2019-02-07T11:12:12.169Z,4.50
2019-02-07T12:23:13.377Z,3.47
2019-02-07T12:25:51.218Z,2.57
2019-02-07T12:28:30.806Z,1.87
2019-02-07T12:31:19.315Z,2.63
2019-02-07T12:34:07.461Z,2.63
2019-02-07T12:36:56.462Z,2.70
2019-02-07T12:39:44.593Z,2.83
2019-02-07T12:42:33.036Z,2.27
2019-02-07T12:45:21.457Z,2.60
2019-02-07T12:48:10.002Z,2.73
2019-02-07T12:50:58.767Z,2.67
2019-02-07T12:53:47.301Z,3.50
2019-02-07T12:56:37.152Z,2.93
2019-02-07T12:59:46.049Z,2.63
2019-02-07T13:02:34.211Z,2.27
2019-02-07T13:05:44.955Z,2.23
2019-02-07T13:08:33.383Z,2.57
2019-02-07T13:11:22.115Z,3.07
2019-02-07T13:14:10.556Z,2.57
2019-02-07T13:16:58.683Z,2.50
2019-02-07T13:19:47.122Z,2.90
2019-02-07T13:22:35.291Z,4.27
2019-02-07T13:28:32.526Z,4.30
2019-02-07T13:31:20.697Z,4.37
2019-02-07T13:34:09.370Z,7.83
2019-02-07T13:45:28.038Z,2.67
2019-02-07T13:59:27.073Z,2.30
2019-02-07T14:05:12.798Z,2.63
2019-02-07T14:08:01.430Z,2.20
2019-02-07T14:10:38.563Z,2.00
2019-02-07T14:13:27.437Z,2.30
2019-02-07T14:16:15.708Z,3.60
2019-02-07T14:18:56.600Z,2.50
2019-02-07T14:21:45.038Z,2.17
2019-02-07T14:24:33.489Z,2.30
2019-02-07T14:27:22.620Z,1.90
2019-02-07T14:30:11.063Z,2.43
2019-02-07T14:33:00.057Z,2.17
2019-02-07T14:35:48.542Z,2.13
2019-02-07T14:38:36.732Z,2.40
2019-02-07T14:41:25.605Z,2.17
2019-02-07T14:44:02.557Z,2.73
2019-02-07T14:46:51.277Z,2.63
2019-02-07T14:49:20.792Z,2.30
2019-02-07T14:51:50.257Z,2.30
2019-02-07T14:54:19.493Z,2.17
2019-02-07T14:56:48.766Z,2.53
2019-02-07T15:02:52.648Z,2.60
2019-02-07T15:05:22.558Z,2.40
2019-02-07T15:07:52.366Z,2.00
2019-02-07T15:10:21.884Z,2.10
2019-02-07T15:12:51.364Z,1.80
2019-02-07T15:15:21.778Z,2.10
2019-02-07T15:17:50.975Z,2.17
2019-02-07T15:20:26.164Z,1.97
2019-02-07T15:25:27.374Z,2.07
2019-02-07T15:27:57.206Z,2.27
2019-02-07T15:30:27.072Z,1.83
2019-02-07T15:32:56.576Z,2.53
2019-02-07T15:35:29.566Z,1.83
2019-02-07T15:37:59.449Z,2.67
2019-02-07T15:40:28.986Z,2.03
2019-02-07T15:42:59.107Z,2.33
2019-02-07T15:45:28.877Z,2.00
2019-02-07T15:47:58.834Z,2.47
2019-02-07T15:50:37.695Z,1.93
2019-02-07T15:55:54.451Z,2.20
2019-02-07T16:07:02.324Z,2.20
2019-02-07T16:09:31.576Z,2.83
2019-02-07T16:12:00.814Z,2.30
2019-02-07T16:14:50.820Z,2.63
2019-02-07T16:17:21.740Z,2.77
2019-02-07T16:19:53.621Z,2.90
2019-02-07T16:22:24.294Z,3.20
2019-02-07T16:24:54.781Z,2.73
2019-02-07T16:27:25.185Z,2.60
2019-02-07T16:29:54.857Z,4.10
2019-02-07T16:41:13.635Z,2.53
2019-02-07T16:43:43.199Z,2.50
2019-02-07T16:46:12.417Z,2.60
2019-02-07T16:48:43.809Z,2.57
2019-02-07T16:51:13.755Z,2.87
2019-02-07T17:28:37.872Z,2.57
2019-02-07T17:31:07.347Z,2.80
2019-02-07T17:33:37.395Z,3.60
2019-02-07T17:36:06.949Z,3.50
2019-02-07T17:38:36.983Z,4.40
2019-02-07T17:41:07.873Z,2.70
2019-02-07T17:43:38.534Z,2.77
2019-02-07T17:46:26.835Z,2.87
2019-02-07T17:51:45.262Z,2.83
2019-02-07T17:54:18.797Z,2.50
2019-02-07T17:57:05.585Z,3.37
2019-02-07T17:59:35.057Z,3.27
2019-02-07T18:02:23.625Z,3.33
2019-02-07T18:04:52.833Z,3.30
2019-02-07T18:07:22.688Z,3.50
2019-02-07T18:09:51.884Z,2.93
2019-02-07T18:12:21.112Z,3.17
2019-02-07T18:14:50.732Z,3.07
2019-02-07T18:17:20.298Z,3.53
2019-02-07T18:19:50.218Z,3.17
2019-02-07T18:22:19.693Z,1.63
2019-02-07T18:24:48.929Z,2.13
2019-02-07T18:27:18.156Z,1.60
2019-02-07T18:29:47.369Z,2.27
2019-02-07T18:32:16.902Z,1.43
2019-02-07T18:34:47.185Z,1.87
2019-02-07T18:37:16.797Z,1.73
2019-02-07T18:39:46.287Z,1.70
2019-02-07T18:42:15.509Z,2.00
2019-02-07T18:44:44.745Z,1.83
2019-02-07T18:47:14.346Z,2.67
2019-02-07T18:49:43.833Z,3.40
2019-02-07T18:52:14.782Z,2.77
2019-02-07T18:54:44.131Z,3.20
2019-02-07T18:57:13.608Z,2.87
2019-02-07T18:59:43.528Z,3.90
2019-02-07T19:02:13.255Z,2.97
2019-02-07T19:04:43.033Z,2.57
2019-02-07T19:07:12.513Z,2.70
2019-02-07T19:09:42.139Z,2.10
2019-02-07T19:12:14.588Z,2.57
2019-02-07T19:14:50.032Z,2.50
2019-02-07T19:17:19.610Z,2.83
2019-02-07T19:22:44.268Z,2.70
2019-02-07T19:25:13.695Z,2.67
2019-02-07T19:27:42.993Z,2.80
2019-02-07T19:30:16.387Z,3.93
2019-02-07T19:32:45.895Z,6.17
2019-02-07T19:35:34.506Z,3.47
2019-02-07T19:38:03.771Z,3.40
2019-02-07T19:40:33.542Z,4.60
2019-02-07T19:43:23.257Z,2.50
2019-02-07T19:49:06.296Z,1.83
2019-02-07T19:51:54.776Z,2.30
2019-02-07T19:54:24.323Z,2.20
2019-02-07T19:56:55.365Z,1.97
2019-02-07T19:59:25.141Z,2.03
2019-02-07T20:01:55.088Z,1.83
2019-02-07T20:04:24.446Z,1.80
2019-02-07T20:06:54.312Z,2.00
2019-02-07T20:09:23.966Z,1.80
2019-02-07T20:11:53.755Z,1.50
2019-02-07T20:30:37.539Z,1.43
2019-02-07T20:38:45.023Z,1.30
2019-02-07T20:41:14.552Z,2.07
2019-02-07T20:46:33.225Z,1.40
2019-02-07T20:49:23.157Z,1.50
2019-02-07T20:51:52.380Z,1.97
2019-02-07T20:54:21.578Z,1.47
2019-02-07T20:56:51.460Z,1.70
2019-02-07T20:59:20.947Z,1.83
2019-02-07T21:04:46.014Z,2.10
2019-02-07T21:07:15.251Z,1.70
2019-02-07T21:09:44.744Z,1.70
2019-02-07T21:12:14.235Z,1.70
2019-02-07T21:14:43.468Z,1.70
2019-02-07T21:17:12.695Z,2.07
2019-02-07T21:19:42.572Z,2.63
2019-02-07T21:22:11.796Z,1.90
2019-02-07T21:25:02.065Z,1.53
2019-02-07T21:27:50.663Z,2.53
2019-02-07T21:30:23.991Z,1.67
2019-02-07T21:32:53.919Z,1.47
2019-02-07T21:51:58.404Z,2.03
2019-02-07T21:54:28.442Z,1.50
2019-02-07T21:56:58.276Z,1.63
2019-02-07T21:59:27.911Z,2.00
2019-02-07T22:01:57.459Z,1.93
2019-02-07T22:04:27.080Z,1.57
2019-02-07T22:06:57.020Z,1.70
2019-02-07T22:09:26.478Z,1.90
2019-02-07T22:11:55.728Z,2.40
2019-02-07T22:14:25.172Z,1.83
2019-02-07T22:16:54.421Z,1.37
2019-02-07T22:19:23.618Z,2.00
2019-02-07T22:21:53.391Z,1.90
2019-02-07T22:24:22.876Z,2.00
2019-02-07T22:26:52.078Z,1.43
2019-02-07T22:29:21.471Z,1.87
2019-02-07T22:31:50.958Z,1.47
2019-02-07T22:34:20.177Z,2.30
2019-02-07T22:36:49.634Z,1.93
2019-02-07T22:39:19.094Z,2.03
2019-02-07T22:41:48.355Z,2.47
2019-02-07T22:44:18.418Z,2.30
2019-02-07T22:46:49.849Z,2.27
2019-02-07T22:49:19.072Z,2.27
2019-02-07T22:51:48.566Z,1.97
2019-02-07T22:54:18.061Z,2.00
2019-02-07T22:56:47.557Z,1.93
2019-02-07T22:59:18.529Z,2.17
2019-02-07T23:04:48.372Z,1.93
2019-02-07T23:07:17.855Z,1.90
2019-02-07T23:09:47.048Z,2.43
2019-02-07T23:12:16.273Z,2.07
2019-02-07T23:14:45.465Z,1.70
2019-02-07T23:17:14.665Z,2.30
2019-02-07T23:19:43.914Z,2.30
2019-02-07T23:22:13.399Z,2.10
2019-02-07T23:24:42.612Z,1.93
2019-02-07T23:27:11.820Z,2.10
2019-02-07T23:29:41.696Z,1.80
2019-02-07T23:32:10.998Z,2.13
2019-02-07T23:34:40.502Z,2.57
2019-02-07T23:37:11.413Z,2.00
2019-02-07T23:39:41.202Z,2.57
2019-02-07T23:42:10.752Z,2.73
2019-02-07T23:44:39.979Z,2.00
2019-02-07T23:47:09.171Z,2.33
2019-02-07T23:49:38.663Z,1.70
2019-02-07T23:52:08.254Z,2.37
2019-02-07T23:54:37.460Z,1.40
2019-02-07T23:57:07.047Z,1.70
2019-02-07T23:59:44.320Z,1.70
